createdAt,value
2023-06-27T00:00:16.336Z,50.31
2023-06-27T00:02:45.184Z,50.28
2023-06-27T00:05:13.396Z,50.42
2023-06-27T00:07:42.547Z,50.40
2023-06-27T00:10:11.835Z,50.12
2023-06-27T00:12:39.868Z,49.98
2023-06-27T00:15:10.281Z,50.33
2023-06-27T00:17:38.412Z,50.50
2023-06-27T00:20:13.342Z,50.19
2023-06-27T00:22:41.057Z,49.93
2023-06-27T00:25:13.783Z,50.19
2023-06-27T00:27:41.860Z,50.09
2023-06-27T00:30:10.982Z,50.04
2023-06-27T00:32:39.216Z,50.45
2023-06-27T00:35:08.998Z,50.56
2023-06-27T00:37:38.147Z,50.80
2023-06-27T00:40:09.769Z,51.27
2023-06-27T00:42:38.057Z,51.70
2023-06-27T00:45:08.615Z,51.86
2023-06-27T00:47:36.732Z,52.20
2023-06-27T00:50:03.866Z,52.90
2023-06-27T00:52:31.967Z,53.42
2023-06-27T00:55:00.090Z,53.58
2023-06-27T00:57:27.704Z,53.70
2023-06-27T00:59:55.684Z,53.17
2023-06-27T01:02:25.305Z,52.93
2023-06-27T01:04:54.181Z,52.04
2023-06-27T01:07:28.222Z,52.69
2023-06-27T01:09:59.281Z,52.65
2023-06-27T01:12:32.336Z,52.49
2023-06-27T01:14:59.484Z,52.35
2023-06-27T01:17:26.405Z,52.05
2023-06-27T01:19:54.049Z,52.40
2023-06-27T01:22:30.335Z,52.53
2023-06-27T01:25:01.610Z,52.91
2023-06-27T01:27:29.704Z,52.81
2023-06-27T01:29:58.238Z,53.09
2023-06-27T01:32:37.175Z,53.13
2023-06-27T01:35:17.003Z,53.25
2023-06-27T01:38:12.746Z,53.26
2023-06-27T01:40:40.837Z,53.44
2023-06-27T01:43:11.153Z,53.42
2023-06-27T01:45:38.642Z,53.36
2023-06-27T01:48:06.819Z,54.04
2023-06-27T01:50:55.891Z,54.09
2023-06-27T01:53:23.627Z,54.44
2023-06-27T01:55:52.299Z,54.45
2023-06-27T01:58:19.532Z,54.28
2023-06-27T02:00:47.688Z,54.29
2023-06-27T02:03:16.560Z,54.36
2023-06-27T02:05:45.290Z,54.13
2023-06-27T02:08:13.477Z,54.33
2023-06-27T02:10:41.398Z,54.18
2023-06-27T02:13:09.374Z,54.24
2023-06-27T02:15:37.708Z,54.32
2023-06-27T02:18:06.468Z,54.48
2023-06-27T02:20:34.055Z,54.29
2023-06-27T02:23:01.955Z,54.08
2023-06-27T02:25:29.519Z,53.96
2023-06-27T02:27:57.504Z,53.71
2023-06-27T02:30:25.534Z,54.21
2023-06-27T02:32:53.677Z,53.88
2023-06-27T02:35:21.310Z,54.04
2023-06-27T02:37:48.994Z,53.48
2023-06-27T02:40:16.947Z,53.31
2023-06-27T02:42:47.176Z,53.48
2023-06-27T02:45:15.382Z,53.74
2023-06-27T02:47:43.669Z,53.81
2023-06-27T02:50:13.339Z,53.98
2023-06-27T02:52:41.550Z,53.65
2023-06-27T02:55:10.480Z,53.94
2023-06-27T02:57:38.572Z,53.71
2023-06-27T03:00:09.882Z,53.70
2023-06-27T03:02:38.109Z,53.64
2023-06-27T03:05:07.532Z,53.66
2023-06-27T03:07:35.256Z,53.89
2023-06-27T03:10:03.451Z,54.17
2023-06-27T03:12:31.758Z,54.26
2023-06-27T03:15:00.109Z,54.69
2023-06-27T03:17:28.356Z,54.99
2023-06-27T03:19:56.514Z,55.09
2023-06-27T03:22:24.474Z,55.87
2023-06-27T03:24:52.546Z,55.47
2023-06-27T03:27:25.150Z,55.61
2023-06-27T03:29:52.988Z,55.94
2023-06-27T03:32:20.706Z,56.29
2023-06-27T03:34:48.517Z,56.50
2023-06-27T03:37:16.219Z,56.85
2023-06-27T03:39:43.896Z,56.34
2023-06-27T03:42:11.572Z,56.25
2023-06-27T03:44:39.657Z,56.17
2023-06-27T03:47:09.099Z,56.12
2023-06-27T03:49:37.450Z,56.57
2023-06-27T03:52:06.342Z,56.94
2023-06-27T03:54:34.622Z,57.56
2023-06-27T03:57:02.874Z,57.98
2023-06-27T03:59:30.587Z,58.14
2023-06-27T04:01:58.270Z,58.25
2023-06-27T04:04:26.682Z,58.21
2023-06-27T04:06:54.906Z,58.68
2023-06-27T04:09:23.805Z,58.39
2023-06-27T04:11:51.630Z,57.80
2023-06-27T04:14:19.736Z,57.57
2023-06-27T04:16:47.401Z,57.23
2023-06-27T04:19:15.515Z,57.36
2023-06-27T04:21:43.623Z,57.26
2023-06-27T04:24:11.791Z,57.06
2023-06-27T04:26:39.818Z,57.08
2023-06-27T04:29:07.767Z,56.49
2023-06-27T04:31:38.768Z,56.82
2023-06-27T04:34:09.905Z,56.90
2023-06-27T04:36:42.471Z,56.40
2023-06-27T04:39:11.145Z,56.66
2023-06-27T04:41:39.389Z,56.83
2023-06-27T04:44:07.573Z,56.64
2023-06-27T04:46:35.201Z,56.12
2023-06-27T04:49:03.397Z,56.21
2023-06-27T04:51:30.519Z,56.04
2023-06-27T04:53:58.254Z,55.80
2023-06-27T04:56:27.920Z,55.70
2023-06-27T04:58:56.037Z,55.19
2023-06-27T05:01:23.846Z,55.25
2023-06-27T05:03:52.244Z,55.27
2023-06-27T05:06:20.572Z,54.54
2023-06-27T05:08:48.468Z,54.27
2023-06-27T05:11:16.679Z,53.73
2023-06-27T05:13:44.822Z,53.12
2023-06-27T05:16:12.912Z,52.85
2023-06-27T05:18:40.585Z,52.43
2023-06-27T05:21:08.684Z,51.87
2023-06-27T05:23:37.070Z,51.53
2023-06-27T05:26:05.425Z,51.65
2023-06-27T05:28:33.536Z,51.70
2023-06-27T05:31:02.043Z,51.06
2023-06-27T05:33:30.239Z,51.24
2023-06-27T05:35:57.852Z,51.41
2023-06-27T05:38:28.879Z,51.38
2023-06-27T05:40:56.963Z,51.05
2023-06-27T05:43:25.021Z,51.07
2023-06-27T05:45:53.688Z,50.76
2023-06-27T05:48:21.747Z,50.94
2023-06-27T05:50:49.865Z,50.95
2023-06-27T05:53:18.145Z,50.61
2023-06-27T05:55:46.776Z,51.06
2023-06-27T05:58:15.106Z,50.74
2023-06-27T06:00:43.462Z,50.78
2023-06-27T06:03:11.595Z,50.59
2023-06-27T06:05:40.073Z,50.59
2023-06-27T06:08:08.383Z,51.31
2023-06-27T06:10:36.290Z,51.36
2023-06-27T06:13:04.414Z,51.41
2023-06-27T06:15:32.525Z,51.66
2023-06-27T06:18:00.691Z,51.17
2023-06-27T06:20:30.617Z,50.39
2023-06-27T06:23:00.775Z,50.28
2023-06-27T06:25:29.624Z,50.70
2023-06-27T06:27:58.629Z,51.05
2023-06-27T06:30:26.359Z,51.73
2023-06-27T06:32:54.671Z,52.06
2023-06-27T06:35:22.612Z,52.68
2023-06-27T06:37:50.965Z,52.39
2023-06-27T06:40:18.728Z,52.48
2023-06-27T06:42:46.905Z,51.93
2023-06-27T06:45:14.941Z,52.71
2023-06-27T06:47:43.200Z,52.91
2023-06-27T06:50:11.918Z,52.85
2023-06-27T06:52:40.229Z,52.63
2023-06-27T06:55:12.280Z,51.99
2023-06-27T06:57:40.434Z,51.88
2023-06-27T07:00:10.013Z,51.36
2023-06-27T07:02:38.972Z,50.93
2023-06-27T07:05:08.532Z,50.60
2023-06-27T07:07:36.611Z,50.05
2023-06-27T07:10:05.593Z,49.85
2023-06-27T07:12:37.767Z,49.21
2023-06-27T07:15:07.549Z,49.02
2023-06-27T07:17:35.405Z,49.36
2023-06-27T07:20:05.486Z,49.58
2023-06-27T07:22:33.624Z,50.33
2023-06-27T07:25:01.805Z,50.50
2023-06-27T07:27:29.799Z,50.64
2023-06-27T07:29:57.892Z,49.12
2023-06-27T07:32:26.539Z,48.92
2023-06-27T07:34:54.554Z,49.16
2023-06-27T07:37:23.345Z,49.67
2023-06-27T07:39:51.120Z,49.42
2023-06-27T07:42:18.930Z,49.56
2023-06-27T07:44:47.166Z,48.93
2023-06-27T07:47:15.355Z,47.71
2023-06-27T07:49:43.445Z,47.96
2023-06-27T07:52:11.562Z,48.09
2023-06-27T07:54:39.860Z,48.58
2023-06-27T07:57:10.510Z,48.55
2023-06-27T07:59:38.190Z,48.98
2023-06-27T08:02:06.477Z,48.99
2023-06-27T08:04:34.272Z,48.52
2023-06-27T08:07:02.285Z,47.41
2023-06-27T08:09:30.404Z,47.03
2023-06-27T08:11:58.723Z,47.02
2023-06-27T08:14:28.678Z,46.37
2023-06-27T08:16:56.636Z,46.13
2023-06-27T08:19:25.552Z,45.53
2023-06-27T08:21:53.501Z,44.79
2023-06-27T08:24:21.178Z,45.31
2023-06-27T08:26:50.965Z,44.80
2023-06-27T08:29:19.006Z,44.72
2023-06-27T08:31:48.037Z,45.71
2023-06-27T08:34:16.371Z,45.57
2023-06-27T08:36:45.632Z,45.67
2023-06-27T08:39:15.883Z,46.27
2023-06-27T08:41:43.545Z,46.21
2023-06-27T08:44:11.770Z,45.78
2023-06-27T08:46:40.374Z,46.11
2023-06-27T08:49:08.484Z,45.04
2023-06-27T08:51:38.845Z,44.84
2023-06-27T08:54:14.020Z,43.61
2023-06-27T08:56:41.471Z,43.37
2023-06-27T08:59:09.892Z,43.25
2023-06-27T09:01:37.555Z,42.02
2023-06-27T09:04:05.686Z,42.59
2023-06-27T09:06:33.402Z,41.37
2023-06-27T09:09:00.903Z,40.59
2023-06-27T09:11:28.172Z,41.04
2023-06-27T09:13:55.957Z,41.57
2023-06-27T09:16:24.105Z,41.11
2023-06-27T09:18:54.122Z,40.61
2023-06-27T09:21:24.245Z,41.59
2023-06-27T09:23:52.350Z,41.32
2023-06-27T09:26:20.752Z,40.58
2023-06-27T09:28:48.653Z,40.70
2023-06-27T09:31:18.175Z,38.16
2023-06-27T09:33:46.879Z,38.79
2023-06-27T09:36:17.506Z,40.01
2023-06-27T09:38:48.291Z,39.20
2023-06-27T09:41:17.762Z,39.61
2023-06-27T09:43:45.057Z,39.20
2023-06-27T09:46:13.314Z,39.03
2023-06-27T09:48:43.290Z,37.82
2023-06-27T09:51:11.450Z,37.00
2023-06-27T09:53:40.120Z,38.06
2023-06-27T09:56:08.015Z,38.67
2023-06-27T09:58:36.306Z,38.44
2023-06-27T10:01:25.897Z,38.11
2023-06-27T10:03:54.428Z,39.22
2023-06-27T10:06:22.492Z,38.95
2023-06-27T10:08:50.545Z,39.38
2023-06-27T10:11:18.816Z,39.09
2023-06-27T10:13:46.858Z,38.82
2023-06-27T10:16:14.573Z,38.52
2023-06-27T10:18:42.592Z,37.85
2023-06-27T10:21:10.056Z,36.55
2023-06-27T10:23:39.158Z,37.96
2023-06-27T10:26:07.000Z,38.61
2023-06-27T10:28:34.978Z,38.21
2023-06-27T10:31:05.960Z,37.48
2023-06-27T10:33:34.334Z,37.66
2023-06-27T10:36:04.643Z,37.75
2023-06-27T10:38:42.404Z,36.98
2023-06-27T10:41:35.266Z,38.07
2023-06-27T10:44:12.086Z,37.96
2023-06-27T10:46:39.753Z,37.72
2023-06-27T10:49:11.762Z,37.59
2023-06-27T10:51:46.142Z,37.09
2023-06-27T10:54:16.827Z,35.85
2023-06-27T10:56:46.636Z,35.99
2023-06-27T10:59:19.223Z,35.40
2023-06-27T11:02:01.744Z,35.30
2023-06-27T11:04:42.677Z,35.08
2023-06-27T11:07:38.991Z,34.27
2023-06-27T11:10:27.349Z,32.66
2023-06-27T11:13:31.816Z,29.34
2023-06-27T11:15:59.621Z,30.26
2023-06-27T11:18:27.168Z,29.76
2023-06-27T11:20:55.163Z,30.58
2023-06-27T11:23:23.351Z,29.52
2023-06-27T11:25:50.344Z,29.51
2023-06-27T11:28:42.173Z,28.32
2023-06-27T11:31:09.997Z,28.86
2023-06-27T11:33:38.007Z,28.21
2023-06-27T11:36:06.829Z,27.73
2023-06-27T11:38:34.528Z,27.33
2023-06-27T11:41:02.357Z,27.55
2023-06-27T11:43:29.549Z,27.69
2023-06-27T11:46:01.942Z,27.47
2023-06-27T11:48:30.110Z,27.50
2023-06-27T11:51:11.757Z,27.72
2023-06-27T11:53:39.612Z,28.11
2023-06-27T11:58:41.117Z,26.52
2023-06-27T12:01:16.305Z,26.35
2023-06-27T12:03:50.346Z,27.48
2023-06-27T12:06:29.292Z,26.63
2023-06-27T12:08:57.513Z,25.96
2023-06-27T12:11:34.148Z,25.28
2023-06-27T12:14:02.651Z,25.74
2023-06-27T12:16:34.007Z,26.46
2023-06-27T12:19:04.978Z,25.74
2023-06-27T12:21:33.523Z,24.54
2023-06-27T12:24:01.559Z,25.47
2023-06-27T12:26:29.062Z,25.75
2023-06-27T12:28:58.762Z,25.85
2023-06-27T12:31:27.056Z,26.65
2023-06-27T12:33:54.091Z,26.98
2023-06-27T12:36:27.730Z,25.76
2023-06-27T12:38:55.829Z,25.42
2023-06-27T12:41:24.078Z,25.85
2023-06-27T12:43:52.356Z,26.35
2023-06-27T12:46:20.465Z,25.96
2023-06-27T12:48:48.268Z,25.76
2023-06-27T12:51:19.770Z,26.35
2023-06-27T12:53:48.981Z,26.17
2023-06-27T12:56:17.363Z,26.42
2023-06-27T12:58:47.923Z,25.14
2023-06-27T13:01:15.654Z,25.42
2023-06-27T13:03:43.719Z,26.14
2023-06-27T13:06:11.393Z,26.59
2023-06-27T13:08:39.513Z,27.13
2023-06-27T13:11:07.866Z,27.03
2023-06-27T13:13:36.089Z,25.85
2023-06-27T13:16:15.085Z,25.66
2023-06-27T13:18:44.353Z,26.05
2023-06-27T13:21:12.840Z,26.10
2023-06-27T13:23:41.072Z,26.25
2023-06-27T13:26:09.216Z,27.04
2023-06-27T13:28:37.331Z,27.98
2023-06-27T13:31:05.404Z,27.97
2023-06-27T13:33:33.702Z,28.38
2023-06-27T13:36:01.948Z,29.18
2023-06-27T13:38:29.914Z,29.22
2023-06-27T13:40:58.582Z,29.26
2023-06-27T13:43:26.328Z,28.65
2023-06-27T13:45:58.832Z,28.86
2023-06-27T13:48:26.553Z,28.51
2023-06-27T13:50:57.294Z,28.96
2023-06-27T13:53:25.200Z,27.95
2023-06-27T13:55:56.603Z,28.51
2023-06-27T13:58:25.484Z,28.97
2023-06-27T14:00:53.878Z,28.38
2023-06-27T14:03:24.454Z,27.75
2023-06-27T14:05:52.530Z,26.75
2023-06-27T14:08:21.206Z,26.27
2023-06-27T14:10:49.582Z,26.01
2023-06-27T14:13:17.566Z,26.57
2023-06-27T14:15:46.040Z,27.07
2023-06-27T14:18:13.895Z,27.11
2023-06-27T14:20:41.836Z,27.29
2023-06-27T14:23:10.191Z,27.11
2023-06-27T14:25:38.334Z,26.96
2023-06-27T14:28:07.043Z,27.76
2023-06-27T14:30:54.778Z,27.56
2023-06-27T14:33:23.965Z,27.70
2023-06-27T14:36:20.852Z,28.34
2023-06-27T14:38:56.574Z,27.90
2023-06-27T14:41:24.704Z,28.72
2023-06-27T14:43:52.683Z,28.06
2023-06-27T14:46:20.943Z,26.15
2023-06-27T14:48:50.700Z,26.44
2023-06-27T14:51:18.916Z,27.00
2023-06-27T14:53:47.434Z,27.31
2023-06-27T14:56:15.613Z,27.59
2023-06-27T14:58:43.552Z,26.85
2023-06-27T15:01:11.996Z,27.15
2023-06-27T15:03:41.945Z,27.51
2023-06-27T15:06:10.462Z,27.88
2023-06-27T15:08:38.520Z,28.86
2023-06-27T15:11:06.232Z,29.81
2023-06-27T15:13:34.623Z,29.67
2023-06-27T15:16:02.574Z,29.44
2023-06-27T15:18:31.207Z,29.67
2023-06-27T15:20:59.076Z,28.99
2023-06-27T15:23:38.170Z,29.00
2023-06-27T15:26:10.142Z,29.15
2023-06-27T15:28:38.222Z,29.75
2023-06-27T15:31:06.664Z,29.87
2023-06-27T15:33:35.033Z,29.15
2023-06-27T15:36:03.753Z,28.95
2023-06-27T15:38:32.076Z,28.66
2023-06-27T15:41:00.292Z,28.97
2023-06-27T15:43:28.655Z,27.52
2023-06-27T15:45:56.989Z,26.57
2023-06-27T15:48:25.597Z,26.75
2023-06-27T15:50:53.850Z,27.00
2023-06-27T15:53:22.220Z,26.64
2023-06-27T15:55:50.660Z,26.47
2023-06-27T15:58:18.781Z,25.26
2023-06-27T16:00:46.464Z,25.11
2023-06-27T16:03:14.123Z,25.16
2023-06-27T16:05:42.576Z,25.52
2023-06-27T16:08:10.610Z,25.66
2023-06-27T16:10:40.433Z,24.64
2023-06-27T16:13:10.095Z,25.77
2023-06-27T16:15:38.189Z,27.38
2023-06-27T16:18:06.080Z,28.04
2023-06-27T16:20:34.379Z,28.75
2023-06-27T16:23:02.442Z,28.77
2023-06-27T16:25:31.133Z,26.94
2023-06-27T16:27:59.593Z,27.23
2023-06-27T16:30:28.010Z,27.44
2023-06-27T16:32:56.166Z,27.88
2023-06-27T16:35:24.911Z,27.96
2023-06-27T16:37:56.750Z,29.38
2023-06-27T16:40:24.589Z,29.31
2023-06-27T16:42:52.896Z,30.39
2023-06-27T16:45:22.730Z,32.60
2023-06-27T16:47:51.662Z,34.00
2023-06-27T16:50:21.489Z,34.33
2023-06-27T16:52:50.095Z,35.13
2023-06-27T16:55:18.622Z,35.09
2023-06-27T16:57:46.606Z,35.15
2023-06-27T17:00:16.664Z,35.41
2023-06-27T17:02:47.432Z,35.79
2023-06-27T17:05:15.791Z,36.86
2023-06-27T17:07:44.441Z,36.68
2023-06-27T17:10:13.142Z,36.80
2023-06-27T17:12:41.963Z,36.53
2023-06-27T17:15:10.389Z,36.83
2023-06-27T17:17:38.288Z,36.76
2023-06-27T17:20:08.426Z,36.30
2023-06-27T17:22:36.081Z,37.03
2023-06-27T17:25:04.943Z,36.87
2023-06-27T17:27:33.037Z,37.38
2023-06-27T17:30:01.077Z,37.33
2023-06-27T17:32:29.164Z,37.52
2023-06-27T17:34:57.383Z,37.73
2023-06-27T17:37:25.483Z,37.30
2023-06-27T17:39:53.757Z,37.37
2023-06-27T17:42:21.675Z,37.02
2023-06-27T17:44:49.717Z,36.72
2023-06-27T17:47:17.872Z,36.41
2023-06-27T17:49:46.120Z,36.29
2023-06-27T17:52:14.277Z,36.40
2023-06-27T17:54:43.375Z,36.30
2023-06-27T17:57:11.569Z,36.01
2023-06-27T17:59:39.798Z,36.05
2023-06-27T18:02:08.149Z,35.52
2023-06-27T18:04:35.792Z,35.68
2023-06-27T18:07:03.922Z,36.14
2023-06-27T18:09:32.095Z,36.54
2023-06-27T18:11:59.940Z,36.70
2023-06-27T18:14:29.899Z,37.29
2023-06-27T18:16:58.545Z,37.42
2023-06-27T18:19:26.621Z,37.40
2023-06-27T18:21:54.878Z,37.76
2023-06-27T18:24:22.995Z,37.71
2023-06-27T18:26:51.222Z,38.04
2023-06-27T18:29:19.397Z,38.25
2023-06-27T18:31:48.676Z,38.59
2023-06-27T18:34:19.713Z,38.42
2023-06-27T18:36:47.879Z,38.52
2023-06-27T18:39:15.807Z,38.73
2023-06-27T18:41:43.469Z,38.69
2023-06-27T18:44:11.135Z,39.08
2023-06-27T18:46:40.767Z,38.98
2023-06-27T18:49:08.544Z,39.61
2023-06-27T18:51:36.793Z,39.50
2023-06-27T18:54:04.550Z,39.41
2023-06-27T18:56:32.717Z,39.81
2023-06-27T18:59:00.671Z,40.42
2023-06-27T19:01:29.455Z,40.14
2023-06-27T19:03:57.626Z,40.42
2023-06-27T19:06:31.181Z,40.91
2023-06-27T19:08:58.842Z,41.49
2023-06-27T19:11:29.532Z,41.29
2023-06-27T19:13:58.997Z,42.03
2023-06-27T19:16:28.255Z,42.52
2023-06-27T19:18:56.892Z,42.32
2023-06-27T19:21:25.580Z,42.77
2023-06-27T19:23:53.557Z,43.27
2023-06-27T19:26:21.363Z,43.85
2023-06-27T19:28:49.303Z,44.74
2023-06-27T19:31:17.530Z,45.52
2023-06-27T19:33:46.644Z,45.72
2023-06-27T19:36:14.794Z,45.88
2023-06-27T19:38:43.593Z,46.58
2023-06-27T19:41:11.685Z,46.97
2023-06-27T19:43:39.530Z,47.01
2023-06-27T19:46:08.105Z,47.57
2023-06-27T19:48:36.310Z,47.67
2023-06-27T19:51:05.864Z,48.44
2023-06-27T19:53:33.979Z,48.59
2023-06-27T19:56:02.290Z,49.57
2023-06-27T19:58:30.358Z,50.10
2023-06-27T20:00:58.568Z,50.21
2023-06-27T20:03:26.631Z,51.42
2023-06-27T20:05:54.699Z,52.23
2023-06-27T20:08:23.073Z,52.61
2023-06-27T20:10:50.978Z,52.72
2023-06-27T20:13:19.482Z,53.03
2023-06-27T20:15:47.426Z,53.32
2023-06-27T20:18:14.786Z,53.34
2023-06-27T20:20:43.239Z,53.64
2023-06-27T20:23:11.514Z,53.99
2023-06-27T20:25:39.241Z,54.29
2023-06-27T20:28:07.505Z,54.64
2023-06-27T20:30:36.298Z,54.65
2023-06-27T20:33:05.302Z,54.62
2023-06-27T20:35:33.531Z,54.44
2023-06-27T20:38:01.983Z,54.38
2023-06-27T20:40:30.580Z,54.42
2023-06-27T20:42:58.465Z,54.25
2023-06-27T20:45:26.211Z,53.97
2023-06-27T20:47:54.396Z,54.11
2023-06-27T20:50:22.385Z,54.04
2023-06-27T20:52:50.467Z,53.98
2023-06-27T20:55:18.123Z,53.82
2023-06-27T20:57:46.420Z,54.03
2023-06-27T21:00:16.746Z,53.95
2023-06-27T21:02:44.469Z,54.11
2023-06-27T21:05:12.735Z,53.97
2023-06-27T21:07:40.641Z,54.39
2023-06-27T21:10:10.049Z,54.39
2023-06-27T21:12:38.051Z,54.98
2023-06-27T21:15:09.204Z,55.30
2023-06-27T21:17:36.599Z,55.59
2023-06-27T21:20:26.989Z,55.83
2023-06-27T21:22:57.536Z,56.16
2023-06-27T21:25:25.903Z,56.38
2023-06-27T21:27:53.600Z,56.50
2023-06-27T21:30:21.728Z,56.95
2023-06-27T21:32:49.473Z,57.57
2023-06-27T21:35:17.616Z,58.28
2023-06-27T21:37:45.464Z,58.68
2023-06-27T21:40:15.542Z,59.03
2023-06-27T21:42:43.911Z,59.29
2023-06-27T21:45:12.776Z,59.21
2023-06-27T21:47:41.214Z,59.17
2023-06-27T21:50:12.182Z,59.46
2023-06-27T21:52:40.257Z,59.20
2023-06-27T21:55:09.392Z,59.28
2023-06-27T21:57:37.410Z,59.79
2023-06-27T22:00:05.323Z,60.51
2023-06-27T22:02:33.553Z,61.21
2023-06-27T22:05:02.042Z,62.06
2023-06-27T22:07:30.726Z,62.45
2023-06-27T22:09:59.186Z,62.99
2023-06-27T22:12:30.711Z,63.52
2023-06-27T22:14:58.976Z,63.94
2023-06-27T22:17:27.008Z,64.26
2023-06-27T22:19:54.756Z,64.83
2023-06-27T22:22:22.573Z,65.03
2023-06-27T22:24:52.842Z,65.29
2023-06-27T22:27:22.888Z,65.71
2023-06-27T22:29:51.117Z,65.84
2023-06-27T22:32:19.156Z,65.26
2023-06-27T22:34:46.922Z,65.19
2023-06-27T22:37:15.805Z,64.86
2023-06-27T22:39:43.969Z,64.73
2023-06-27T22:42:12.135Z,64.37
2023-06-27T22:44:40.074Z,64.08
2023-06-27T22:47:08.350Z,64.17
2023-06-27T22:49:36.582Z,63.56
2023-06-27T22:52:05.351Z,63.00
2023-06-27T22:54:33.873Z,63.03
2023-06-27T22:57:02.118Z,63.00
2023-06-27T22:59:30.597Z,63.04
2023-06-27T23:01:58.768Z,62.73
2023-06-27T23:04:26.554Z,63.59
2023-06-27T23:06:55.636Z,63.74
2023-06-27T23:09:23.466Z,64.27
2023-06-27T23:11:51.573Z,65.28
2023-06-27T23:14:19.879Z,65.23
2023-06-27T23:16:47.440Z,65.00
2023-06-27T23:19:16.072Z,65.40
2023-06-27T23:21:44.625Z,66.19
2023-06-27T23:24:12.409Z,66.30
2023-06-27T23:26:40.643Z,66.46
2023-06-27T23:29:12.519Z,66.68
2023-06-27T23:31:40.407Z,66.81
2023-06-27T23:34:10.595Z,67.33
2023-06-27T23:36:41.829Z,66.86
2023-06-27T23:39:10.355Z,66.91
2023-06-27T23:41:38.568Z,66.74
2023-06-27T23:44:07.228Z,66.68
2023-06-27T23:46:35.011Z,66.74
2023-06-27T23:49:03.076Z,66.49
2023-06-27T23:51:30.856Z,66.51
2023-06-27T23:53:58.834Z,66.60
2023-06-27T23:56:26.630Z,66.75
2023-06-27T23:58:54.934Z,66.96
